Time;durP1;ratioP1;P1;durP2;ratioP2;P2;SDS_P1;SDS_P2;PMS_P1;PMS_P2;Temp;Humidity;BMP_temperature;BMP_pressure;BME280_temperature;BME280_humidity;BME280_pressure;Samples;Min_cycle;Max_cycle;Signal;HPM_P1;HPM_P2
2023/09/15 00:01:41;;;;;;;;;;;16.70;99.90;;;;;;4970849;28;19956;-77
2023/09/15 00:04:11;;;;;;;;;;;16.60;99.90;;;;;;4956862;28;20560;-76
2023/09/15 00:06:37;;;;;;;;;;;16.60;99.90;;;;;;4970086;28;19956;-75
2023/09/15 00:09:03;;;;;;;;;;;16.50;99.90;;;;;;4963912;28;19965;-73
2023/09/15 00:11:39;;;;;;;;;;;16.40;99.90;;;;;;4970407;28;19936;-77
2023/09/15 00:14:06;;;;;;;;;;;16.40;99.90;;;;;;4970797;28;19957;-77
2023/09/15 00:16:32;;;;;;;;;;;16.30;99.90;;;;;;4971257;28;20257;-76
2023/09/15 00:18:57;;;;;;;;;;;16.30;99.90;;;;;;4976109;28;20403;-76
2023/09/15 00:21:22;;;;;;;;;;;16.20;99.90;;;;;;4970683;28;19936;-77
2023/09/15 00:23:48;;;;;;;;;;;16.20;99.90;;;;;;4972046;28;21761;-81
2023/09/15 00:26:13;;;;;;;;;;;16.20;99.90;;;;;;4971262;28;19930;-81
2023/09/15 00:28:39;;;;;;;;;;;16.20;99.90;;;;;;4973407;28;19913;-81
2023/09/15 00:31:05;;;;;;;;;;;16.30;99.90;;;;;;4969650;28;19936;-79
2023/09/15 00:33:30;;;;;;;;;;;16.30;99.90;;;;;;4970337;28;19946;-77
2023/09/15 00:35:56;;;;;;;;;;;16.40;99.90;;;;;;4971843;28;19959;-78
2023/09/15 00:38:21;;;;;;;;;;;16.40;99.90;;;;;;4967079;28;19934;-73
2023/09/15 00:40:47;;;;;;;;;;;16.30;99.90;;;;;;4970132;28;20303;-77
2023/09/15 00:43:13;;;;;;;;;;;16.40;99.90;;;;;;4968513;28;19960;-78
2023/09/15 00:45:38;;;;;;;;;;;16.40;99.90;;;;;;4971323;28;19946;-77
2023/09/15 00:48:04;;;;;;;;;;;16.40;99.90;;;;;;4970007;28;19972;-77
2023/09/15 00:50:31;;;;;;;;;;;16.50;99.90;;;;;;4969792;28;19992;-76
2023/09/15 00:52:59;;;;;;;;;;;16.50;99.90;;;;;;4961124;28;19936;-76
2023/09/15 00:55:25;;;;;;;;;;;16.60;99.90;;;;;;4970128;28;20510;-76
2023/09/15 00:57:51;;;;;;;;;;;16.60;99.90;;;;;;4965223;28;19978;-76
2023/09/15 01:00:20;;;;;;;;;;;16.50;99.90;;;;;;4968946;28;20587;-76
2023/09/15 01:02:47;;;;;;;;;;;16.60;99.90;;;;;;4958241;28;20357;-76
2023/09/15 01:05:19;;;;;;;;;;;16.60;99.90;;;;;;4973218;28;19945;-75
2023/09/15 01:07:46;;;;;;;;;;;16.60;99.90;;;;;;4969750;28;19961;-75
2023/09/15 01:10:12;;;;;;;;;;;16.60;99.90;;;;;;4969382;28;20471;-76
2023/09/15 01:12:38;;;;;;;;;;;16.70;99.90;;;;;;4964023;28;20028;-76
2023/09/15 01:15:04;;;;;;;;;;;16.70;99.90;;;;;;4969250;28;19956;-76
2023/09/15 01:17:32;;;;;;;;;;;16.80;99.90;;;;;;4964839;28;20029;-76
2023/09/15 01:20:13;;;;;;;;;;;16.80;99.90;;;;;;4967358;28;19933;-76
2023/09/15 01:22:58;;;;;;;;;;;16.80;99.90;;;;;;4965538;28;20099;-76
2023/09/15 01:25:48;;;;;;;;;;;16.90;99.90;;;;;;4969424;28;20402;-76
2023/09/15 01:28:16;;;;;;;;;;;16.90;99.90;;;;;;4974451;28;19934;-76
2023/09/15 01:30:44;;;;;;;;;;;17.00;99.90;;;;;;4967567;28;19929;-76
2023/09/15 01:33:13;;;;;;;;;;;17.10;99.90;;;;;;4958195;28;20014;-76
2023/09/15 01:35:39;;;;;;;;;;;17.10;99.90;;;;;;4974933;28;20397;-76
2023/09/15 01:38:04;;;;;;;;;;;17.10;99.90;;;;;;4969039;28;20027;-76
2023/09/15 01:40:31;;;;;;;;;;;17.10;99.90;;;;;;4953480;28;19936;-76
2023/09/15 01:42:56;;;;;;;;;;;17.10;99.90;;;;;;4972655;28;20238;-76
2023/09/15 01:45:22;;;;;;;;;;;17.20;99.90;;;;;;4970166;28;19943;-76
2023/09/15 01:47:47;;;;;;;;;;;17.20;99.90;;;;;;4970582;28;19935;-76
2023/09/15 01:50:14;;;;;;;;;;;17.20;99.90;;;;;;4968220;28;20492;-76
2023/09/15 01:52:40;;;;;;;;;;;17.20;99.90;;;;;;4960766;28;20450;-76
2023/09/15 01:55:07;;;;;;;;;;;17.20;99.90;;;;;;4971716;28;19958;-76
2023/09/15 01:57:32;;;;;;;;;;;17.20;99.90;;;;;;4974164;28;20339;-76
2023/09/15 02:00:00;;;;;;;;;;;17.30;99.90;;;;;;4968327;28;19927;-76
2023/09/15 02:02:26;;;;;;;;;;;17.30;99.90;;;;;;4967510;28;19971;-77
2023/09/15 02:04:52;;;;;;;;;;;17.40;99.90;;;;;;4970794;28;20722;-76
2023/09/15 02:07:17;;;;;;;;;;;17.40;99.90;;;;;;4970459;28;19936;-77
2023/09/15 02:09:43;;;;;;;;;;;17.40;99.90;;;;;;4973806;28;20432;-77
2023/09/15 02:12:08;;;;;;;;;;;17.40;99.90;;;;;;4965230;28;21357;-76
2023/09/15 02:14:34;;;;;;;;;;;17.50;99.90;;;;;;4960774;28;20770;-77
2023/09/15 02:17:00;;;;;;;;;;;17.50;99.90;;;;;;4966936;28;19945;-77
2023/09/15 02:19:26;;;;;;;;;;;17.50;99.90;;;;;;4970204;28;19936;-77
2023/09/15 02:21:51;;;;;;;;;;;17.50;99.90;;;;;;4971787;28;20016;-77
2023/09/15 02:24:17;;;;;;;;;;;17.50;99.90;;;;;;4969058;28;19935;-76
2023/09/15 02:26:42;;;;;;;;;;;17.50;99.90;;;;;;4972456;28;20350;-77
2023/09/15 02:29:08;;;;;;;;;;;17.50;99.90;;;;;;4969970;28;19933;-76
2023/09/15 02:31:34;;;;;;;;;;;17.50;99.90;;;;;;4965791;28;19936;-76
2023/09/15 02:34:00;;;;;;;;;;;17.40;99.90;;;;;;4973721;28;20002;-77
2023/09/15 02:36:25;;;;;;;;;;;17.50;99.90;;;;;;4970629;28;20702;-77
2023/09/15 02:38:54;;;;;;;;;;;17.50;99.90;;;;;;4966313;28;19935;-76
2023/09/15 02:41:22;;;;;;;;;;;17.50;99.90;;;;;;4969251;28;19991;-77
2023/09/15 02:43:48;;;;;;;;;;;17.50;99.90;;;;;;4973081;28;19985;-76
2023/09/15 02:46:13;;;;;;;;;;;17.50;99.90;;;;;;4961325;28;19938;-76
2023/09/15 02:48:39;;;;;;;;;;;17.50;99.90;;;;;;4960047;28;20124;-76
2023/09/15 02:51:05;;;;;;;;;;;17.50;99.90;;;;;;4970526;28;19933;-76
2023/09/15 02:53:30;;;;;;;;;;;17.50;99.90;;;;;;4974423;28;19959;-76
2023/09/15 02:55:57;;;;;;;;;;;17.50;99.90;;;;;;4974759;28;20034;-77
2023/09/15 02:58:22;;;;;;;;;;;17.40;99.90;;;;;;4971045;28;19930;-76
2023/09/15 03:00:48;;;;;;;;;;;17.40;99.90;;;;;;4956612;28;20478;-76
2023/09/15 03:03:14;;;;;;;;;;;17.30;99.90;;;;;;4974177;28;19986;-76
2023/09/15 03:05:39;;;;;;;;;;;17.40;99.90;;;;;;4962743;28;19936;-77
2023/09/15 03:08:05;;;;;;;;;;;17.40;99.90;;;;;;4964246;28;19932;-76
2023/09/15 03:10:33;;;;;;;;;;;17.30;99.90;;;;;;4978336;28;19987;-76
2023/09/15 03:12:59;;;;;;;;;;;17.30;99.90;;;;;;4958779;28;19937;-76
2023/09/15 03:15:24;;;;;;;;;;;17.40;99.90;;;;;;4973731;28;20362;-77
2023/09/15 03:17:50;;;;;;;;;;;17.40;99.90;;;;;;4967449;28;19966;-76
2023/09/15 03:20:19;;;;;;;;;;;17.40;99.90;;;;;;4970652;28;19938;-76
2023/09/15 03:22:45;;;;;;;;;;;17.30;99.90;;;;;;4970500;28;19949;-77
2023/09/15 03:25:11;;;;;;;;;;;17.30;99.90;;;;;;4974639;28;20027;-76
2023/09/15 03:27:36;;;;;;;;;;;17.30;99.90;;;;;;4966869;28;19937;-76
2023/09/15 03:30:04;;;;;;;;;;;17.30;99.90;;;;;;4973180;28;19984;-76
2023/09/15 03:32:29;;;;;;;;;;;17.40;99.90;;;;;;4970075;28;20017;-77
2023/09/15 03:34:55;;;;;;;;;;;17.40;99.90;;;;;;4967422;28;20022;-77
2023/09/15 03:37:20;;;;;;;;;;;17.30;99.90;;;;;;4964287;28;20024;-76
2023/09/15 03:39:46;;;;;;;;;;;17.30;99.90;;;;;;4971526;28;19932;-76
2023/09/15 03:42:11;;;;;;;;;;;17.30;99.90;;;;;;4975831;28;19932;-77
2023/09/15 03:44:37;;;;;;;;;;;17.30;99.90;;;;;;4972558;28;19936;-76
2023/09/15 03:47:03;;;;;;;;;;;17.30;99.90;;;;;;4974701;28;19938;-72
2023/09/15 03:49:28;;;;;;;;;;;17.30;99.90;;;;;;4971994;28;19972;-72
2023/09/15 03:51:54;;;;;;;;;;;17.30;99.90;;;;;;4974505;28;19933;-72
2023/09/15 03:54:19;;;;;;;;;;;17.30;99.90;;;;;;4972770;28;20028;-71
2023/09/15 03:56:45;;;;;;;;;;;17.40;99.90;;;;;;4976042;28;19970;-71
2023/09/15 03:59:10;;;;;;;;;;;17.40;99.90;;;;;;4970974;28;19931;-72
2023/09/15 04:01:36;;;;;;;;;;;17.40;99.90;;;;;;4968314;28;20054;-73
2023/09/15 04:04:02;;;;;;;;;;;17.40;99.90;;;;;;4971471;28;20466;-71
2023/09/15 04:06:28;;;;;;;;;;;17.40;99.90;;;;;;4958627;28;20647;-72
2023/09/15 04:08:55;;;;;;;;;;;17.40;99.90;;;;;;4966605;28;20022;-71
2023/09/15 04:11:21;;;;;;;;;;;17.40;99.90;;;;;;4964434;28;19971;-72
2023/09/15 04:13:46;;;;;;;;;;;17.40;99.90;;;;;;4971758;28;20050;-72
2023/09/15 04:16:11;;;;;;;;;;;17.40;99.90;;;;;;4965681;28;19932;-72
2023/09/15 04:18:37;;;;;;;;;;;17.40;99.90;;;;;;4969083;28;20362;-71
2023/09/15 04:21:02;;;;;;;;;;;17.40;99.90;;;;;;4967165;28;19937;-71
2023/09/15 04:23:28;;;;;;;;;;;17.30;99.90;;;;;;4973248;28;19989;-72
2023/09/15 04:25:53;;;;;;;;;;;17.30;99.90;;;;;;4961015;28;20392;-73
2023/09/15 04:28:19;;;;;;;;;;;17.30;99.90;;;;;;4967581;28;20050;-73
2023/09/15 04:30:44;;;;;;;;;;;17.30;99.90;;;;;;4969465;28;19926;-73
2023/09/15 04:33:10;;;;;;;;;;;17.30;99.90;;;;;;4966082;28;19932;-73
2023/09/15 04:35:36;;;;;;;;;;;17.20;99.90;;;;;;4972390;28;19968;-73
2023/09/15 04:38:02;;;;;;;;;;;17.30;99.90;;;;;;4968025;28;20200;-73
2023/09/15 04:40:28;;;;;;;;;;;17.30;99.90;;;;;;4972991;28;19938;-73
2023/09/15 04:42:53;;;;;;;;;;;17.30;99.90;;;;;;4969780;28;19940;-80
2023/09/15 04:45:19;;;;;;;;;;;17.30;99.90;;;;;;4972120;28;19946;-80
2023/09/15 04:47:44;;;;;;;;;;;17.30;99.90;;;;;;4972548;28;20342;-81
2023/09/15 04:50:10;;;;;;;;;;;17.30;99.90;;;;;;4973988;28;19992;-80
2023/09/15 04:52:35;;;;;;;;;;;17.30;99.90;;;;;;4974791;28;19936;-79
2023/09/15 04:55:01;;;;;;;;;;;17.30;99.90;;;;;;4973825;28;20102;-79
2023/09/15 04:57:26;;;;;;;;;;;17.30;99.90;;;;;;4970616;28;19934;-81
2023/09/15 04:59:55;;;;;;;;;;;17.30;99.90;;;;;;4955446;28;19958;-73
2023/09/15 05:02:24;;;;;;;;;;;17.30;99.90;;;;;;4968934;28;20424;-79
2023/09/15 05:04:51;;;;;;;;;;;17.30;99.90;;;;;;4969066;28;19935;-78
2023/09/15 05:07:16;;;;;;;;;;;17.40;99.90;;;;;;4968845;28;19955;-78
2023/09/15 05:09:42;;;;;;;;;;;17.40;99.90;;;;;;4972440;28;20580;-78
2023/09/15 05:12:08;;;;;;;;;;;17.50;99.90;;;;;;4972495;28;19929;-78
2023/09/15 05:14:34;;;;;;;;;;;17.50;99.90;;;;;;4970260;28;19963;-77
2023/09/15 05:16:59;;;;;;;;;;;17.40;99.90;;;;;;4969553;28;20349;-77
2023/09/15 05:19:25;;;;;;;;;;;17.40;99.90;;;;;;4971960;28;19971;-79
2023/09/15 05:21:50;;;;;;;;;;;17.50;99.90;;;;;;4972597;28;20352;-78
2023/09/15 05:24:16;;;;;;;;;;;17.50;99.90;;;;;;4967353;28;19953;-79
2023/09/15 05:26:41;;;;;;;;;;;17.50;99.90;;;;;;4964606;28;20707;-79
2023/09/15 05:29:08;;;;;;;;;;;17.60;99.90;;;;;;4962825;28;21050;-78
2023/09/15 05:31:34;;;;;;;;;;;17.60;99.90;;;;;;4961742;28;20031;-77
2023/09/15 05:33:59;;;;;;;;;;;17.70;99.90;;;;;;4956569;28;19985;-77
2023/09/15 05:36:25;;;;;;;;;;;17.70;99.90;;;;;;4960458;28;21026;-71
2023/09/15 05:38:52;;;;;;;;;;;17.70;99.90;;;;;;4950096;28;20038;-71
2023/09/15 05:41:17;;;;;;;;;;;17.80;99.90;;;;;;4960050;28;19942;-71
2023/09/15 05:43:43;;;;;;;;;;;17.80;99.90;;;;;;4965103;28;21361;-71
2023/09/15 05:46:08;;;;;;;;;;;17.80;99.90;;;;;;4938348;28;19984;-73
2023/09/15 05:48:34;;;;;;;;;;;17.90;99.90;;;;;;4922412;28;20516;-72
2023/09/15 05:51:03;;;;;;;;;;;17.90;99.90;;;;;;4932924;28;19934;-72
2023/09/15 05:53:28;;;;;;;;;;;18.00;99.90;;;;;;4928614;28;19925;-72
2023/09/15 05:55:55;;;;;;;;;;;18.00;99.90;;;;;;4936048;28;19940;-71
2023/09/15 05:58:21;;;;;;;;;;;18.00;99.90;;;;;;4930622;28;19926;-72
2023/09/15 06:00:46;;;;;;;;;;;18.00;99.90;;;;;;4933369;28;20473;-71
2023/09/15 06:03:12;;;;;;;;;;;18.00;99.90;;;;;;4930057;28;20377;-72
2023/09/15 06:05:38;;;;;;;;;;;18.00;99.90;;;;;;4934248;28;19928;-72
2023/09/15 06:08:03;;;;;;;;;;;18.00;99.90;;;;;;4936144;28;20311;-72
2023/09/15 06:10:29;;;;;;;;;;;18.10;99.90;;;;;;4936243;28;19945;-72
2023/09/15 06:12:54;;;;;;;;;;;18.20;99.90;;;;;;4932577;28;19932;-73
2023/09/15 06:15:21;;;;;;;;;;;18.20;99.90;;;;;;4938241;28;20429;-73
2023/09/15 06:17:47;;;;;;;;;;;18.20;99.90;;;;;;4932412;28;20361;-73
2023/09/15 06:20:13;;;;;;;;;;;18.30;99.90;;;;;;4936436;28;19958;-72
2023/09/15 06:22:38;;;;;;;;;;;18.20;99.90;;;;;;4928906;28;19950;-72
2023/09/15 06:25:04;;;;;;;;;;;18.30;99.90;;;;;;4934895;28;19935;-72
2023/09/15 06:27:32;;;;;;;;;;;18.40;99.90;;;;;;4916788;28;20008;-73
2023/09/15 06:29:58;;;;;;;;;;;18.40;99.90;;;;;;4936898;28;20015;-71
2023/09/15 06:32:24;;;;;;;;;;;18.40;99.90;;;;;;4928732;28;19940;-71
2023/09/15 06:34:49;;;;;;;;;;;18.40;99.90;;;;;;4933387;28;20502;-72
2023/09/15 06:37:15;;;;;;;;;;;18.40;99.90;;;;;;4932993;28;19950;-71
2023/09/15 06:39:41;;;;;;;;;;;18.40;99.90;;;;;;4934926;28;19978;-71
2023/09/15 06:42:08;;;;;;;;;;;18.40;99.90;;;;;;4935190;28;19936;-72
2023/09/15 06:44:34;;;;;;;;;;;18.40;99.90;;;;;;4934951;28;19935;-72
2023/09/15 06:46:59;;;;;;;;;;;18.40;99.90;;;;;;4936878;28;19975;-72
2023/09/15 06:49:25;;;;;;;;;;;18.40;99.90;;;;;;4933058;28;19937;-77
2023/09/15 06:51:51;;;;;;;;;;;18.40;99.90;;;;;;4933473;28;20504;-72
2023/09/15 06:54:16;;;;;;;;;;;18.40;99.90;;;;;;4932111;28;19947;-71
2023/09/15 06:56:42;;;;;;;;;;;18.40;99.90;;;;;;4937177;28;19998;-72
2023/09/15 06:59:07;;;;;;;;;;;18.50;99.90;;;;;;4927949;28;19932;-72
2023/09/15 07:01:33;;;;;;;;;;;18.50;99.90;;;;;;4933452;28;20014;-72
2023/09/15 07:03:58;;;;;;;;;;;18.60;99.90;;;;;;4928877;28;20416;-73
2023/09/15 07:06:24;;;;;;;;;;;18.50;99.90;;;;;;4926058;28;19929;-73
2023/09/15 07:08:49;;;;;;;;;;;18.50;99.90;;;;;;4912394;28;19939;-73
2023/09/15 07:11:15;;;;;;;;;;;18.50;99.90;;;;;;4927476;28;19937;-73
2023/09/15 07:13:41;;;;;;;;;;;18.50;99.90;;;;;;4929566;28;19962;-73
2023/09/15 07:16:06;;;;;;;;;;;18.50;99.90;;;;;;4933205;28;20486;-72
2023/09/15 07:18:32;;;;;;;;;;;18.60;99.90;;;;;;4930246;28;20315;-72
2023/09/15 07:20:57;;;;;;;;;;;18.60;99.90;;;;;;4933554;28;20302;-72
2023/09/15 07:23:23;;;;;;;;;;;18.70;99.90;;;;;;4934677;28;20329;-71
2023/09/15 07:25:48;;;;;;;;;;;18.80;99.90;;;;;;4938358;28;20394;-73
2023/09/15 07:28:14;;;;;;;;;;;18.90;99.90;;;;;;4932619;28;19931;-72
2023/09/15 07:30:41;;;;;;;;;;;19.10;99.90;;;;;;4934390;28;19929;-72
2023/09/15 07:33:07;;;;;;;;;;;19.30;99.90;;;;;;4931791;28;19933;-72
2023/09/15 07:35:34;;;;;;;;;;;19.30;99.90;;;;;;4934159;28;19958;-72
2023/09/15 07:37:59;;;;;;;;;;;19.50;99.90;;;;;;4937274;28;19969;-73
2023/09/15 07:40:25;;;;;;;;;;;19.50;99.90;;;;;;4934377;28;19965;-73
2023/09/15 07:42:50;;;;;;;;;;;19.60;99.90;;;;;;4937769;28;19936;-73
2023/09/15 07:45:16;;;;;;;;;;;19.70;99.90;;;;;;4925822;28;19929;-78
2023/09/15 07:47:42;;;;;;;;;;;19.80;99.90;;;;;;4931290;28;20171;-79
2023/09/15 07:50:07;;;;;;;;;;;19.80;99.90;;;;;;4934960;28;19933;-78
2023/09/15 07:52:33;;;;;;;;;;;19.80;99.90;;;;;;4939273;28;19931;-79
2023/09/15 07:54:59;;;;;;;;;;;20.10;99.90;;;;;;4936332;28;19995;-79
2023/09/15 07:57:25;;;;;;;;;;;20.30;99.90;;;;;;4929327;28;20024;-78
2023/09/15 07:59:50;;;;;;;;;;;20.50;99.90;;;;;;4936808;28;20024;-79
2023/09/15 08:02:16;;;;;;;;;;;20.70;99.90;;;;;;4919923;28;19947;-80
2023/09/15 08:04:42;;;;;;;;;;;20.90;99.90;;;;;;4933519;28;19933;-81
2023/09/15 08:07:07;;;;;;;;;;;21.00;99.90;;;;;;4933663;28;20404;-79
2023/09/15 08:09:33;;;;;;;;;;;21.00;99.90;;;;;;4942038;28;19942;-79
2023/09/15 08:12:01;;;;;;;;;;;21.30;99.90;;;;;;4931390;28;19930;-80
2023/09/15 08:14:27;;;;;;;;;;;21.40;99.90;;;;;;4947321;28;20626;-76
2023/09/15 08:16:53;;;;;;;;;;;21.60;99.90;;;;;;4917476;28;20040;-73
2023/09/15 08:19:20;;;;;;;;;;;21.80;99.90;;;;;;4937633;28;19928;-73
2023/09/15 08:21:46;;;;;;;;;;;21.80;99.90;;;;;;4936686;28;20417;-73
2023/09/15 08:24:12;;;;;;;;;;;21.80;99.90;;;;;;4939288;28;20046;-68
2023/09/15 08:26:38;;;;;;;;;;;22.00;99.90;;;;;;4939439;28;19989;-68
2023/09/15 08:29:04;;;;;;;;;;;22.10;99.90;;;;;;4934693;28;19985;-68
2023/09/15 08:31:30;;;;;;;;;;;22.30;99.90;;;;;;4924268;28;20362;-68
2023/09/15 08:33:55;;;;;;;;;;;22.30;99.90;;;;;;4936737;28;20343;-68
2023/09/15 08:36:21;;;;;;;;;;;22.40;99.90;;;;;;4937454;28;19942;-67
2023/09/15 08:38:46;;;;;;;;;;;22.50;99.90;;;;;;4938743;28;20730;-68
2023/09/15 08:41:20;;;;;;;;;;;22.60;99.90;;;;;;4941137;28;19922;-73
2023/09/15 08:43:46;;;;;;;;;;;22.70;99.90;;;;;;4939180;28;19988;-73
2023/09/15 08:46:12;;;;;;;;;;;22.80;99.90;;;;;;4936054;28;19977;-73
2023/09/15 08:48:39;;;;;;;;;;;22.80;99.90;;;;;;4937092;28;20228;-73
2023/09/15 08:51:05;;;;;;;;;;;22.90;99.90;;;;;;4937452;28;19925;-72
2023/09/15 08:53:32;;;;;;;;;;;23.00;99.90;;;;;;4930203;28;19924;-73
2023/09/15 08:55:57;;;;;;;;;;;23.00;99.90;;;;;;4924485;28;20068;-75
2023/09/15 08:58:24;;;;;;;;;;;23.10;99.90;;;;;;4939906;28;19933;-74
2023/09/15 09:00:50;;;;;;;;;;;23.00;99.90;;;;;;4929357;28;20541;-67
2023/09/15 09:03:16;;;;;;;;;;;23.00;99.90;;;;;;4919997;28;19942;-67
2023/09/15 09:05:45;;;;;;;;;;;22.90;99.90;;;;;;4941768;28;19935;-66
2023/09/15 09:08:12;;;;;;;;;;;22.90;99.90;;;;;;4928249;28;20856;-67
2023/09/15 09:10:37;;;;;;;;;;;22.90;99.90;;;;;;4929671;28;20353;-66
2023/09/15 09:13:03;;;;;;;;;;;23.00;99.90;;;;;;4929157;28;19940;-74
2023/09/15 09:15:31;;;;;;;;;;;23.10;99.90;;;;;;4927806;28;20047;-69
2023/09/15 09:17:57;;;;;;;;;;;23.20;99.90;;;;;;4926383;28;19937;-72
2023/09/15 09:20:24;;;;;;;;;;;23.30;99.90;;;;;;4923819;28;19928;-72
2023/09/15 09:22:50;;;;;;;;;;;23.50;99.90;;;;;;4936447;28;19943;-71
2023/09/15 09:25:23;;;;;;;;;;;23.60;99.90;;;;;;4937038;28;21538;-71
2023/09/15 09:27:49;;;;;;;;;;;23.70;99.90;;;;;;4931983;28;19981;-72
2023/09/15 09:30:14;;;;;;;;;;;23.90;99.90;;;;;;4935610;28;20023;-72
2023/09/15 09:32:40;;;;;;;;;;;23.90;99.90;;;;;;4925271;28;19932;-72
2023/09/15 09:35:05;;;;;;;;;;;23.70;99.90;;;;;;4936486;28;19930;-72
2023/09/15 09:37:31;;;;;;;;;;;23.70;99.90;;;;;;4938142;28;19970;-71
2023/09/15 09:39:58;;;;;;;;;;;23.70;99.90;;;;;;4928379;28;19937;-71
2023/09/15 09:42:24;;;;;;;;;;;23.70;99.90;;;;;;4924147;28;20131;-71
2023/09/15 09:44:50;;;;;;;;;;;23.70;99.90;;;;;;4937592;28;20027;-71
2023/09/15 09:47:17;;;;;;;;;;;23.80;99.90;;;;;;4943226;28;19936;-71
2023/09/15 09:49:43;;;;;;;;;;;23.80;99.90;;;;;;4934726;28;19934;-71
2023/09/15 09:52:09;;;;;;;;;;;23.80;99.90;;;;;;4918909;28;19934;-71
2023/09/15 09:54:34;;;;;;;;;;;23.70;99.90;;;;;;4932320;28;19957;-67
2023/09/15 09:57:01;;;;;;;;;;;23.60;99.90;;;;;;4937655;28;19937;-67
2023/09/15 09:59:26;;;;;;;;;;;23.60;99.90;;;;;;4935011;28;20011;-67
2023/09/15 10:01:52;;;;;;;;;;;23.50;99.90;;;;;;4927892;28;20446;-67
2023/09/15 10:04:20;;;;;;;;;;;23.60;99.90;;;;;;4935540;28;20648;-67
2023/09/15 10:06:45;;;;;;;;;;;23.70;99.90;;;;;;4935455;28;20223;-67
2023/09/15 10:09:13;;;;;;;;;;;23.80;99.90;;;;;;4935418;28;19942;-67
2023/09/15 10:11:39;;;;;;;;;;;24.00;99.90;;;;;;4941092;28;20715;-67
2023/09/15 10:14:06;;;;;;;;;;;24.10;99.90;;;;;;4927959;28;19955;-67
2023/09/15 10:16:32;;;;;;;;;;;24.20;99.90;;;;;;4930997;28;19931;-67
2023/09/15 10:18:58;;;;;;;;;;;24.30;99.90;;;;;;4934568;28;20318;-67
2023/09/15 10:21:24;;;;;;;;;;;24.40;99.90;;;;;;4934828;28;20036;-67
2023/09/15 10:23:57;;;;;;;;;;;24.50;99.90;;;;;;4931909;28;20013;-67
2023/09/15 10:26:24;;;;;;;;;;;24.30;99.90;;;;;;4934437;28;20368;-67
2023/09/15 10:28:51;;;;;;;;;;;24.20;99.90;;;;;;4953430;28;20020;-68
2023/09/15 10:31:17;;;;;;;;;;;24.00;99.90;;;;;;4927727;28;20439;-71
2023/09/15 10:33:43;;;;;;;;;;;23.90;99.90;;;;;;4935684;28;19927;-71
2023/09/15 10:36:11;;;;;;;;;;;23.70;99.90;;;;;;4933324;28;19948;-71
2023/09/15 10:38:37;;;;;;;;;;;23.60;99.90;;;;;;4918925;28;20110;-72
2023/09/15 10:41:05;;;;;;;;;;;23.60;99.90;;;;;;4928650;28;20288;-71
2023/09/15 10:43:31;;;;;;;;;;;23.50;99.90;;;;;;4923926;28;19972;-72
2023/09/15 10:45:58;;;;;;;;;;;23.40;99.90;;;;;;4930458;28;20452;-71
2023/09/15 10:48:55;;;;;;;;;;;23.40;99.90;;;;;;4939570;28;19952;-68
2023/09/15 10:51:22;;;;;;;;;;;23.40;99.90;;;;;;4878661;29;20583;-68
2023/09/15 10:53:49;;;;;;;;;;;23.30;99.90;;;;;;4878480;29;20444;-69
2023/09/15 10:56:16;;;;;;;;;;;23.30;99.90;;;;;;4873892;29;19988;-68
2023/09/15 10:58:42;;;;;;;;;;;23.30;99.90;;;;;;4880084;29;19966;-69
2023/09/15 11:01:09;;;;;;;;;;;23.30;99.90;;;;;;4874878;29;20104;-68
2023/09/15 11:03:36;;;;;;;;;;;23.30;99.90;;;;;;4875474;29;19926;-68
2023/09/15 11:06:02;;;;;;;;;;;23.30;99.90;;;;;;4876768;29;19933;-68
2023/09/15 11:08:29;;;;;;;;;;;23.20;99.90;;;;;;4878493;29;20063;-70
2023/09/15 11:10:58;;;;;;;;;;;23.10;99.90;;;;;;4877165;29;19972;-70
2023/09/15 11:13:23;;;;;;;;;;;23.00;99.90;;;;;;4882065;29;19979;-71
2023/09/15 11:15:49;;;;;;;;;;;23.00;99.90;;;;;;4882881;29;19963;-70
2023/09/15 11:18:14;;;;;;;;;;;22.90;99.90;;;;;;4864531;29;19999;-70
2023/09/15 11:20:40;;;;;;;;;;;22.80;99.90;;;;;;4884033;29;19915;-70
2023/09/15 11:23:06;;;;;;;;;;;22.80;99.90;;;;;;4877259;29;20491;-70
2023/09/15 11:25:32;;;;;;;;;;;22.80;99.90;;;;;;4883111;29;19929;-68
2023/09/15 11:28:00;;;;;;;;;;;22.80;99.90;;;;;;4932474;28;20446;-68
2023/09/15 11:30:26;;;;;;;;;;;22.90;99.90;;;;;;4931969;28;20408;-69
2023/09/15 11:32:53;;;;;;;;;;;23.00;99.90;;;;;;4936760;28;19933;-69
2023/09/15 11:35:20;;;;;;;;;;;23.10;99.90;;;;;;4935778;28;19979;-68
2023/09/15 11:37:45;;;;;;;;;;;23.20;99.90;;;;;;4933197;28;19929;-69
2023/09/15 11:40:23;;;;;;;;;;;23.20;99.90;;;;;;4940983;28;19932;-68
2023/09/15 11:42:52;;;;;;;;;;;23.20;99.90;;;;;;4936620;28;19921;-69
2023/09/15 11:45:18;;;;;;;;;;;23.20;99.90;;;;;;4937647;28;19939;-71
2023/09/15 11:47:45;;;;;;;;;;;23.20;99.90;;;;;;4939835;28;19938;-71
2023/09/15 11:50:12;;;;;;;;;;;23.20;99.90;;;;;;4934655;28;19931;-71
2023/09/15 11:52:38;;;;;;;;;;;23.30;99.90;;;;;;4936094;28;19968;-70
2023/09/15 11:55:04;;;;;;;;;;;23.30;99.90;;;;;;4939257;28;20322;-71
2023/09/15 11:57:30;;;;;;;;;;;23.30;99.90;;;;;;4937239;28;19921;-71
2023/09/15 11:59:55;;;;;;;;;;;23.40;99.90;;;;;;4938978;28;20605;-71
2023/09/15 12:02:21;;;;;;;;;;;23.40;99.90;;;;;;4928013;28;19937;-71
2023/09/15 12:04:46;;;;;;;;;;;23.50;99.90;;;;;;4933026;28;19924;-71
2023/09/15 12:07:12;;;;;;;;;;;23.60;99.90;;;;;;4932807;28;19937;-71
2023/09/15 12:09:38;;;;;;;;;;;23.60;99.90;;;;;;4919348;28;19934;-70
2023/09/15 12:12:04;;;;;;;;;;;23.70;99.90;;;;;;4920979;28;21970;-71
2023/09/15 12:14:30;;;;;;;;;;;23.70;99.90;;;;;;4917399;28;20438;-71
2023/09/15 12:16:57;;;;;;;;;;;23.70;99.90;;;;;;4932448;28;20018;-70
2023/09/15 12:19:22;;;;;;;;;;;23.70;99.90;;;;;;4926454;28;19967;-72
2023/09/15 12:21:59;;;;;;;;;;;23.50;99.90;;;;;;4930888;28;19959;-69
2023/09/15 12:24:25;;;;;;;;;;;23.50;99.90;;;;;;4933542;28;19931;-69
2023/09/15 12:26:51;;;;;;;;;;;23.50;99.90;;;;;;4922944;28;20437;-69
2023/09/15 12:29:16;;;;;;;;;;;23.60;99.90;;;;;;4936335;28;20188;-69
2023/09/15 12:31:44;;;;;;;;;;;23.70;99.90;;;;;;4939336;28;19931;-69
2023/09/15 12:34:18;;;;;;;;;;;23.80;99.90;;;;;;4923115;28;19955;-70
2023/09/15 12:36:44;;;;;;;;;;;23.90;99.90;;;;;;4924172;28;19932;-68
2023/09/15 12:39:10;;;;;;;;;;;24.00;99.90;;;;;;4931777;28;20428;-73
2023/09/15 12:41:35;;;;;;;;;;;24.00;99.90;;;;;;4941248;28;19936;-72
2023/09/15 12:44:01;;;;;;;;;;;24.00;99.90;;;;;;4926993;28;19932;-75
2023/09/15 12:46:26;;;;;;;;;;;24.00;99.90;;;;;;4934200;28;19938;-75
2023/09/15 12:48:52;;;;;;;;;;;24.10;99.90;;;;;;4929460;28;20048;-75
2023/09/15 12:51:17;;;;;;;;;;;24.20;99.90;;;;;;4933386;28;20369;-76
2023/09/15 12:53:43;;;;;;;;;;;24.30;99.90;;;;;;4934102;28;19927;-75
2023/09/15 12:56:08;;;;;;;;;;;24.40;99.90;;;;;;4943003;28;19939;-76
2023/09/15 12:58:34;;;;;;;;;;;24.50;99.90;;;;;;4918397;28;19937;-67
2023/09/15 13:00:59;;;;;;;;;;;24.50;99.90;;;;;;4926037;28;20041;-66
2023/09/15 13:03:25;;;;;;;;;;;24.50;99.90;;;;;;4929659;28;19939;-66
2023/09/15 13:05:52;;;;;;;;;;;24.60;99.90;;;;;;4932368;28;19935;-66
2023/09/15 13:08:17;;;;;;;;;;;24.70;99.90;;;;;;4915175;28;19939;-66
2023/09/15 13:10:43;;;;;;;;;;;24.70;99.90;;;;;;4923520;28;19933;-66
2023/09/15 13:13:08;;;;;;;;;;;24.60;99.90;;;;;;4924652;28;20357;-66
2023/09/15 13:15:34;;;;;;;;;;;24.50;99.90;;;;;;4924215;28;21674;-73
2023/09/15 13:17:59;;;;;;;;;;;24.30;99.90;;;;;;4930429;28;19928;-70
2023/09/15 13:20:25;;;;;;;;;;;24.20;99.90;;;;;;4923898;28;20461;-70
2023/09/15 13:22:51;;;;;;;;;;;24.20;99.90;;;;;;4920349;28;20036;-69
2023/09/15 13:25:16;;;;;;;;;;;24.10;99.90;;;;;;4927343;28;20030;-70
2023/09/15 13:27:44;;;;;;;;;;;24.10;99.90;;;;;;4919685;28;20012;-71
2023/09/15 13:30:13;;;;;;;;;;;24.10;99.90;;;;;;4937408;28;19956;-70
2023/09/15 13:32:39;;;;;;;;;;;24.10;99.90;;;;;;4932841;28;20044;-70
2023/09/15 13:35:05;;;;;;;;;;;24.20;99.90;;;;;;4934585;28;20424;-67
2023/09/15 13:37:31;;;;;;;;;;;24.20;99.90;;;;;;4935999;28;19952;-67
2023/09/15 13:39:56;;;;;;;;;;;24.20;99.90;;;;;;4936762;28;19930;-68
2023/09/15 13:42:32;;;;;;;;;;;24.20;99.90;;;;;;4936203;28;20549;-69
2023/09/15 13:44:59;;;;;;;;;;;24.30;99.90;;;;;;4926526;28;19929;-68
2023/09/15 13:47:26;;;;;;;;;;;24.30;99.90;;;;;;4934583;28;19963;-67
2023/09/15 13:49:52;;;;;;;;;;;24.30;99.90;;;;;;4934839;28;20360;-67
2023/09/15 13:52:17;;;;;;;;;;;24.30;99.90;;;;;;4935596;28;19934;-68
2023/09/15 13:54:43;;;;;;;;;;;24.30;99.90;;;;;;4937085;28;19954;-67
2023/09/15 13:57:10;;;;;;;;;;;24.40;99.90;;;;;;4936572;28;19938;-68
2023/09/15 13:59:35;;;;;;;;;;;24.50;99.90;;;;;;4934051;28;19931;-69
2023/09/15 14:02:00;;;;;;;;;;;24.80;99.90;;;;;;4927188;28;19970;-68
2023/09/15 14:04:26;;;;;;;;;;;24.90;99.90;;;;;;4936415;28;19928;-67
2023/09/15 14:06:52;;;;;;;;;;;24.90;99.90;;;;;;4918984;28;20030;-68
2023/09/15 14:09:17;;;;;;;;;;;25.10;99.90;;;;;;4932015;28;20625;-70
2023/09/15 14:11:45;;;;;;;;;;;25.20;99.90;;;;;;4935587;28;19982;-69